Time;durP1;ratioP1;P1;durP2;ratioP2;P2;SDS_P1;SDS_P2;PMS_P1;PMS_P2;Temp;Humidity;BMP_temperature;BMP_pressure;BME280_temperature;BME280_humidity;BME280_pressure;Samples;Min_cycle;Max_cycle;Signal;HPM_P1;HPM_P2
2022/04/28 00:01:05;;;;;;;0.30;0.30;;;7.80;99.90;;;;;;5032889;28;20088;-72
2022/04/28 00:03:31;;;;;;;0.20;0.20;;;7.80;99.90;;;;;;5045631;28;20137;-72
2022/04/28 00:05:57;;;;;;;0.22;0.22;;;7.90;99.90;;;;;;5035593;28;20051;-72
2022/04/28 00:08:23;;;;;;;0.43;0.43;;;7.90;99.90;;;;;;5051761;28;20059;-72
2022/04/28 00:10:49;;;;;;;0.45;0.45;;;7.80;99.90;;;;;;5052325;28;20473;-72
2022/04/28 00:13:15;;;;;;;0.20;0.20;;;7.90;99.90;;;;;;5068740;28;20040;-72
2022/04/28 00:15:41;;;;;;;0.28;0.28;;;7.90;99.90;;;;;;5038735;28;20528;-72
2022/04/28 00:18:07;;;;;;;0.30;0.30;;;7.90;99.90;;;;;;5031947;28;20119;-74
2022/04/28 00:20:33;;;;;;;0.50;0.40;;;7.90;99.90;;;;;;5058638;28;20515;-72
2022/04/28 00:22:58;;;;;;;0.43;0.43;;;7.90;99.90;;;;;;5043934;28;20040;-72
2022/04/28 00:25:24;;;;;;;0.32;0.32;;;7.90;99.90;;;;;;5066618;28;20047;-72
2022/04/28 00:27:50;;;;;;;0.20;0.20;;;7.80;99.90;;;;;;5051931;28;20044;-72
2022/04/28 00:30:16;;;;;;;1.55;0.47;;;7.80;99.90;;;;;;5033892;28;20033;-72
2022/04/28 00:32:42;;;;;;;1.17;1.17;;;7.80;99.90;;;;;;5058621;28;20037;-72
2022/04/28 00:35:08;;;;;;;0.20;0.20;;;7.80;99.90;;;;;;5048149;28;20125;-72
2022/04/28 00:37:34;;;;;;;1.00;1.00;;;7.80;99.90;;;;;;5057545;28;20048;-72
2022/04/28 00:40:01;;;;;;;0.28;0.28;;;7.80;99.90;;;;;;5055575;28;20051;-72
2022/04/28 00:42:27;;;;;;;0.25;0.25;;;7.80;99.90;;;;;;5070880;28;20052;-72
2022/04/28 00:44:53;;;;;;;0.28;0.28;;;7.80;99.90;;;;;;5061288;28;20506;-72
2022/04/28 00:47:18;;;;;;;4.82;1.20;;;7.80;99.90;;;;;;5034716;28;20085;-72
2022/04/28 00:52:30;;;;;;;0.28;0.28;;;7.80;99.90;;;;;;5035977;28;20066;-72
2022/04/28 00:54:57;;;;;;;0.88;0.85;;;7.70;99.90;;;;;;5051545;28;20522;-72
2022/04/28 00:57:25;;;;;;;4.25;0.98;;;7.70;99.90;;;;;;5068047;28;20037;-72
2022/04/28 00:59:51;;;;;;;0.60;0.60;;;7.70;99.90;;;;;;5034079;28;20079;-72
2022/04/28 01:02:18;;;;;;;0.20;0.20;;;7.70;99.90;;;;;;5044761;28;20040;-72
2022/04/28 01:04:45;;;;;;;0.30;0.30;;;7.70;99.90;;;;;;5046229;28;20122;-72
2022/04/28 01:07:10;;;;;;;0.20;0.20;;;7.70;99.90;;;;;;5038009;28;20056;-73
2022/04/28 01:09:39;;;;;;;0.30;0.30;;;7.70;99.90;;;;;;5032055;28;20036;-72
2022/04/28 01:12:10;;;;;;;0.20;0.20;;;7.70;99.90;;;;;;5034338;28;20163;-72
2022/04/28 01:14:36;;;;;;;0.30;0.30;;;7.70;99.90;;;;;;5053202;28;20032;-72
2022/04/28 01:17:02;;;;;;;0.20;0.20;;;7.70;99.90;;;;;;5066194;28;20483;-72
2022/04/28 01:19:28;;;;;;;0.20;0.20;;;7.70;99.90;;;;;;5034742;28;20044;-72
2022/04/28 01:21:55;;;;;;;0.28;0.28;;;7.70;99.90;;;;;;5033912;28;20121;-74
2022/04/28 01:24:20;;;;;;;5.32;3.13;;;7.70;99.90;;;;;;5030074;28;20041;-72
2022/04/28 01:26:48;;;;;;;0.20;0.20;;;7.70;99.90;;;;;;5049243;28;20051;-72
2022/04/28 01:29:13;;;;;;;0.40;0.40;;;7.70;99.90;;;;;;5049700;28;20464;-72
2022/04/28 01:31:39;;;;;;;0.20;0.20;;;7.70;99.90;;;;;;5049186;28;20047;-72
2022/04/28 01:34:04;;;;;;;0.20;0.20;;;7.70;99.90;;;;;;5034645;28;20492;-72
2022/04/28 01:36:31;;;;;;;0.20;0.20;;;7.70;99.90;;;;;;5055939;28;20040;-72
2022/04/28 01:38:57;;;;;;;0.30;0.30;;;7.70;99.90;;;;;;5047434;28;20115;-72
2022/04/28 01:41:23;;;;;;;0.20;0.20;;;7.70;99.90;;;;;;5054337;28;20154;-72
2022/04/28 01:43:49;;;;;;;0.20;0.20;;;7.70;99.90;;;;;;5054177;28;20558;-72
2022/04/28 01:46:14;;;;;;;0.20;0.20;;;7.70;99.90;;;;;;5070825;28;20122;-72
2022/04/28 01:48:40;;;;;;;0.57;0.57;;;7.70;99.90;;;;;;5036937;28;20533;-72
2022/04/28 01:56:34;;;;;;;0.52;0.52;;;7.80;99.90;;;;;;5035852;28;20175;-72
2022/04/28 01:59:00;;;;;;;0.20;0.20;;;7.70;99.90;;;;;;5050140;28;20127;-72
2022/04/28 02:01:25;;;;;;;0.20;0.20;;;7.80;99.90;;;;;;5033928;28;20095;-72
2022/04/28 02:03:51;;;;;;;0.20;0.20;;;7.80;99.90;;;;;;5034422;28;20154;-74
2022/04/28 02:06:17;;;;;;;0.20;0.20;;;7.80;99.90;;;;;;5053457;28;20052;-74
2022/04/28 02:08:45;;;;;;;0.20;0.20;;;7.80;99.90;;;;;;5049177;28;20051;-74
2022/04/28 02:11:10;;;;;;;0.60;0.60;;;7.80;99.90;;;;;;5051255;28;20523;-74
2022/04/28 02:13:36;;;;;;;0.47;0.47;;;7.80;99.90;;;;;;5038791;28;20133;-74
2022/04/28 02:16:02;;;;;;;0.20;0.20;;;7.70;99.90;;;;;;5034320;28;20044;-72
2022/04/28 02:18:28;;;;;;;0.25;0.25;;;7.70;99.90;;;;;;5033248;28;20052;-72
2022/04/28 02:20:53;;;;;;;0.30;0.30;;;7.70;99.90;;;;;;5050469;28;20669;-72
2022/04/28 02:23:19;;;;;;;0.20;0.20;;;7.70;99.90;;;;;;5050346;28;20060;-72
2022/04/28 02:25:44;;;;;;;0.25;0.25;;;7.70;99.90;;;;;;5049376;28;20041;-72
2022/04/28 02:28:10;;;;;;;0.20;0.20;;;7.70;99.90;;;;;;5033284;28;20550;-72
2022/04/28 02:30:35;;;;;;;1.08;0.88;;;7.70;99.90;;;;;;5047717;28;20492;-72
2022/04/28 02:33:10;;;;;;;0.20;0.20;;;7.60;99.90;;;;;;5049992;28;20040;-72
2022/04/28 02:35:37;;;;;;;0.45;0.45;;;7.70;99.90;;;;;;5043880;28;20048;-72
2022/04/28 02:38:03;;;;;;;0.28;0.28;;;7.70;99.90;;;;;;5045425;28;20043;-72
2022/04/28 02:40:29;;;;;;;0.40;0.40;;;7.60;99.90;;;;;;5050180;28;20040;-72
2022/04/28 02:42:54;;;;;;;0.40;0.40;;;7.60;99.90;;;;;;5032786;28;20038;-72
2022/04/28 02:45:20;;;;;;;0.20;0.20;;;7.60;99.90;;;;;;5029212;28;20044;-72
2022/04/28 02:47:45;;;;;;;0.30;0.30;;;7.60;99.90;;;;;;5032467;28;20735;-72
2022/04/28 02:50:11;;;;;;;0.98;0.98;;;7.60;99.90;;;;;;5049191;28;20144;-72
2022/04/28 02:52:40;;;;;;;0.30;0.30;;;7.60;99.90;;;;;;5048236;28;20052;-72
2022/04/28 02:55:10;;;;;;;0.43;0.43;;;7.60;99.90;;;;;;5030011;28;20048;-72
2022/04/28 02:57:36;;;;;;;0.40;0.40;;;7.60;99.90;;;;;;5030979;28;20064;-72
2022/04/28 03:00:04;;;;;;;0.20;0.20;;;7.60;99.90;;;;;;5033449;28;20040;-72
2022/04/28 03:02:30;;;;;;;0.30;0.30;;;7.50;99.90;;;;;;5049549;28;20404;-72
2022/04/28 03:04:57;;;;;;;0.20;0.20;;;7.60;99.90;;;;;;5050433;28;20044;-72
2022/04/28 03:12:51;;;;;;;0.20;0.20;;;7.50;99.90;;;;;;5033508;28;20052;-72
2022/04/28 03:15:17;;;;;;;1.52;0.95;;;7.50;99.90;;;;;;5024946;28;20041;-72
2022/04/28 03:17:43;;;;;;;0.30;0.30;;;7.50;99.90;;;;;;5068949;28;20042;-72
2022/04/28 03:20:09;;;;;;;0.30;0.30;;;7.50;99.90;;;;;;5058651;28;20087;-72
2022/04/28 03:22:36;;;;;;;0.20;0.20;;;7.50;99.90;;;;;;5056933;28;20462;-72
2022/04/28 03:25:05;;;;;;;0.30;0.30;;;7.50;99.90;;;;;;5052810;28;20462;-72
2022/04/28 03:27:32;;;;;;;0.20;0.20;;;7.50;99.90;;;;;;5052908;28;20132;-72
2022/04/28 03:29:57;;;;;;;0.40;0.40;;;7.50;99.90;;;;;;5035666;28;20041;-72
2022/04/28 03:32:23;;;;;;;0.38;0.38;;;7.60;99.90;;;;;;5046333;28;20052;-72
2022/04/28 03:34:49;;;;;;;0.20;0.20;;;7.50;99.90;;;;;;5036080;28;20422;-72
2022/04/28 03:37:15;;;;;;;0.25;0.25;;;7.50;99.90;;;;;;5044917;28;20109;-72
2022/04/28 03:39:41;;;;;;;0.30;0.30;;;7.50;99.90;;;;;;5036055;28;20387;-72
2022/04/28 03:42:07;;;;;;;0.30;0.30;;;7.50;99.90;;;;;;5036054;28;20044;-72
2022/04/28 03:44:34;;;;;;;0.52;0.52;;;7.50;99.90;;;;;;5050022;28;20576;-72
2022/04/28 03:47:00;;;;;;;0.50;0.50;;;7.50;99.90;;;;;;5024609;28;20044;-72
2022/04/28 03:49:26;;;;;;;0.20;0.20;;;7.60;99.90;;;;;;5035662;28;20083;-72
2022/04/28 03:51:52;;;;;;;0.30;0.30;;;7.60;99.90;;;;;;5061583;28;20102;-72
2022/04/28 03:54:18;;;;;;;0.20;0.20;;;7.60;99.90;;;;;;5069974;28;20135;-72
2022/04/28 03:56:43;;;;;;;0.25;0.25;;;7.60;99.90;;;;;;5052697;28;20047;-72
2022/04/28 03:59:09;;;;;;;0.20;0.20;;;7.60;99.90;;;;;;5056917;28;20047;-72
2022/04/28 04:01:35;;;;;;;0.30;0.30;;;7.50;99.90;;;;;;5048822;28;20488;-72
2022/04/28 04:04:01;;;;;;;0.20;0.20;;;7.50;99.90;;;;;;5032588;28;20574;-72
2022/04/28 04:06:26;;;;;;;0.22;0.22;;;7.50;99.90;;;;;;5043248;28;20050;-72
2022/04/28 04:08:52;;;;;;;0.20;0.20;;;7.50;99.90;;;;;;5023167;28;20060;-72
2022/04/28 04:11:18;;;;;;;0.30;0.30;;;7.50;99.90;;;;;;5048752;28;20479;-72
2022/04/28 04:13:45;;;;;;;0.20;0.20;;;7.50;99.90;;;;;;5026723;28;20041;-72
2022/04/28 04:16:11;;;;;;;0.63;0.63;;;7.50;99.90;;;;;;5015429;28;20044;-72
2022/04/28 04:18:37;;;;;;;0.30;0.30;;;7.50;99.90;;;;;;5034189;28;20127;-72
2022/04/28 04:21:03;;;;;;;0.45;0.45;;;7.50;99.90;;;;;;5051519;28;20132;-72
2022/04/28 04:23:28;;;;;;;0.50;0.50;;;7.50;99.90;;;;;;5052799;28;20071;-72
2022/04/28 04:25:54;;;;;;;0.20;0.20;;;7.60;99.90;;;;;;5055930;28;20427;-72
2022/04/28 04:28:20;;;;;;;0.52;0.45;;;7.60;99.90;;;;;;5055574;28;20055;-72
2022/04/28 04:33:31;;;;;;;0.55;0.55;;;7.60;99.90;;;;;;5032113;28;20204;-74
2022/04/28 04:35:57;;;;;;;0.38;0.38;;;7.70;99.90;;;;;;5050595;28;20115;-74
2022/04/28 04:38:23;;;;;;;0.20;0.20;;;7.70;99.90;;;;;;5034616;28;20163;-74
2022/04/28 04:40:48;;;;;;;0.22;0.22;;;7.70;99.90;;;;;;5040690;28;20063;-74
2022/04/28 04:43:14;;;;;;;0.22;0.22;;;7.80;99.90;;;;;;5032165;28;20179;-74
2022/04/28 04:45:43;;;;;;;0.75;0.50;;;7.80;99.90;;;;;;5031959;28;20045;-72
2022/04/28 04:48:10;;;;;;;0.20;0.20;;;7.80;99.90;;;;;;5015310;28;20118;-72
2022/04/28 04:50:37;;;;;;;0.20;0.20;;;7.90;99.90;;;;;;5029525;28;20057;-72
2022/04/28 04:53:04;;;;;;;0.28;0.28;;;7.90;99.90;;;;;;5015581;28;20416;-73
2022/04/28 04:55:31;;;;;;;0.20;0.20;;;8.00;99.90;;;;;;5014658;28;20126;-72
2022/04/28 04:57:57;;;;;;;0.20;0.20;;;8.00;99.90;;;;;;5031499;28;20072;-72
2022/04/28 05:00:23;;;;;;;0.30;0.30;;;8.00;99.90;;;;;;5023484;28;20041;-72
2022/04/28 05:02:49;;;;;;;0.25;0.25;;;8.10;99.90;;;;;;5031764;28;20369;-72
2022/04/28 05:05:15;;;;;;;0.20;0.20;;;8.10;99.90;;;;;;5014067;28;20043;-72
2022/04/28 05:07:41;;;;;;;0.35;0.35;;;8.10;99.90;;;;;;5048063;28;20044;-73
2022/04/28 05:10:07;;;;;;;0.20;0.20;;;8.20;99.90;;;;;;5019780;28;20047;-73
2022/04/28 05:12:33;;;;;;;0.30;0.30;;;8.30;99.90;;;;;;5015098;28;20507;-72
2022/04/28 05:14:59;;;;;;;0.30;0.30;;;8.40;99.90;;;;;;5019814;28;20033;-72
2022/04/28 05:17:24;;;;;;;0.30;0.30;;;8.50;99.90;;;;;;5013318;28;20527;-72
2022/04/28 05:19:50;;;;;;;0.20;0.20;;;8.70;99.90;;;;;;5034121;28;20056;-72
2022/04/28 05:22:15;;;;;;;0.30;0.30;;;8.80;99.90;;;;;;5016231;28;20063;-73
2022/04/28 05:24:41;;;;;;;0.85;0.85;;;9.10;99.90;;;;;;5018576;28;20041;-72
2022/04/28 05:27:07;;;;;;;3.10;2.13;;;9.50;99.90;;;;;;5012458;28;20390;-72
2022/04/28 05:29:32;;;;;;;0.65;0.65;;;9.90;99.90;;;;;;5013656;28;20037;-72
2022/04/28 05:31:58;;;;;;;0.80;0.70;;;10.00;99.90;;;;;;5010549;28;20454;-72
2022/04/28 05:34:23;;;;;;;0.20;0.20;;;9.90;99.90;;;;;;5027233;28;20099;-72
2022/04/28 05:36:50;;;;;;;2.20;0.77;;;9.80;99.90;;;;;;5035368;28;20515;-72
2022/04/28 05:39:17;;;;;;;5.57;0.52;;;9.70;99.90;;;;;;5035131;28;20056;-72
2022/04/28 05:41:43;;;;;;;0.75;0.75;;;9.70;99.90;;;;;;5037929;28;20055;-72
2022/04/28 05:46:53;;;;;;;0.77;0.77;;;9.80;99.90;;;;;;5060709;28;20052;-72
2022/04/28 05:49:19;;;;;;;3.38;1.52;;;9.80;99.90;;;;;;5050344;28;20051;-72
2022/04/28 05:51:46;;;;;;;0.45;0.45;;;9.90;99.90;;;;;;5029211;28;20173;-72
2022/04/28 05:54:11;;;;;;;0.73;0.73;;;10.10;99.90;;;;;;5037824;28;20050;-72
2022/04/28 05:56:38;;;;;;;2.97;1.58;;;10.30;99.90;;;;;;5029231;28;20091;-72
2022/04/28 05:59:03;;;;;;;1.42;1.30;;;10.50;99.90;;;;;;5023307;28;20062;-72
2022/04/28 06:01:29;;;;;;;1.45;1.35;;;10.50;99.90;;;;;;5032338;28;20049;-73
2022/04/28 06:03:55;;;;;;;10.82;1.90;;;10.60;99.90;;;;;;5024674;28;20444;-72
2022/04/28 06:06:21;;;;;;;0.20;0.20;;;10.60;99.90;;;;;;5021369;28;20524;-72
2022/04/28 06:08:46;;;;;;;13.95;1.40;;;10.60;99.90;;;;;;5046586;28;20041;-73
2022/04/28 06:11:12;;;;;;;0.40;0.40;;;10.70;99.90;;;;;;5014559;28;20537;-73
2022/04/28 06:13:38;;;;;;;1.70;0.80;;;10.80;99.90;;;;;;5028957;28;20037;-72
2022/04/28 06:16:04;;;;;;;3.08;1.67;;;10.90;99.90;;;;;;5033244;28;20051;-73
2022/04/28 06:18:30;;;;;;;1.20;0.50;;;11.10;99.90;;;;;;5001836;28;20053;-73
2022/04/28 06:20:56;;;;;;;2.75;0.73;;;11.30;99.90;;;;;;5028439;28;20044;-73
2022/04/28 06:23:21;;;;;;;2.35;1.38;;;11.70;99.90;;;;;;5027616;28;20055;-72
2022/04/28 06:25:47;;;;;;;1.98;1.27;;;12.30;99.90;;;;;;5010380;28;20045;-73
2022/04/28 06:28:15;;;;;;;3.80;1.63;;;12.80;99.90;;;;;;5009961;28;20047;-73
2022/04/28 06:30:41;;;;;;;0.10;0.10;;;12.90;99.90;;;;;;5026590;28;20041;-73
2022/04/28 06:33:08;;;;;;;5.22;1.67;;;12.80;99.90;;;;;;5007302;28;20116;-73
2022/04/28 06:35:34;;;;;;;9.75;1.58;;;12.80;99.90;;;;;;5024160;28;20500;-72
2022/04/28 06:38:01;;;;;;;0.85;0.73;;;12.60;99.90;;;;;;5027687;28;20112;-73
2022/04/28 06:40:26;;;;;;;0.20;0.20;;;12.50;99.90;;;;;;5031047;28;20131;-73
2022/04/28 06:42:52;;;;;;;7.05;2.35;;;12.60;99.90;;;;;;5032701;28;20590;-73
2022/04/28 06:45:18;;;;;;;0.95;0.90;;;12.80;99.90;;;;;;5020542;28;20491;-73
2022/04/28 06:47:44;;;;;;;2.10;1.55;;;13.10;99.90;;;;;;5028893;28;20045;-73
2022/04/28 06:50:10;;;;;;;0.98;0.63;;;13.40;99.90;;;;;;5012450;28;20515;-73
2022/04/28 06:52:37;;;;;;;1.90;1.15;;;14.00;99.90;;;;;;5032067;28;20052;-72
2022/04/28 06:55:04;;;;;;;4.25;0.63;;;14.40;99.10;;;;;;5039181;28;20150;-72
2022/04/28 06:57:30;;;;;;;0.50;0.50;;;14.60;98.50;;;;;;5052128;28;20103;-73
2022/04/28 06:59:55;;;;;;;5.68;1.23;;;15.00;99.00;;;;;;4997598;28;20520;-73
2022/04/28 07:02:21;;;;;;;0.75;0.73;;;15.10;98.30;;;;;;5013983;28;20383;-72
2022/04/28 07:04:47;;;;;;;1.05;1.05;;;14.30;97.70;;;;;;5019892;28;20380;-73
2022/04/28 07:07:14;;;;;;;1.25;0.55;;;13.40;97.60;;;;;;5014683;28;20045;-73
2022/04/28 07:09:40;;;;;;;0.38;0.38;;;12.60;99.00;;;;;;5030929;28;20073;-72
2022/04/28 07:12:06;;;;;;;0.30;0.30;;;12.10;99.90;;;;;;5003134;28;20048;-73
2022/04/28 07:14:33;;;;;;;0.88;0.85;;;12.30;99.90;;;;;;5014005;28;20042;-73
2022/04/28 07:16:59;;;;;;;0.75;0.75;;;12.40;99.90;;;;;;5013386;28;20041;-73
2022/04/28 07:19:25;;;;;;;1.35;1.25;;;12.30;99.90;;;;;;5019021;28;20044;-73
2022/04/28 07:21:50;;;;;;;0.20;0.20;;;12.10;99.90;;;;;;5030008;28;20579;-73
2022/04/28 07:24:16;;;;;;;3.63;1.13;;;12.00;99.90;;;;;;5023933;28;20049;-73
2022/04/28 07:26:42;;;;;;;0.47;0.45;;;12.00;99.90;;;;;;5001448;28;20041;-73
2022/04/28 07:29:07;;;;;;;2.53;0.85;;;12.00;99.90;;;;;;5011946;28;20187;-73
2022/04/28 07:31:33;;;;;;;0.28;0.28;;;11.70;99.90;;;;;;5029186;28;20039;-73
2022/04/28 07:33:58;;;;;;;4.10;0.45;;;11.50;99.90;;;;;;5047828;28;20040;-73
2022/04/28 07:36:24;;;;;;;0.20;0.20;;;11.40;99.90;;;;;;5031480;28;20096;-73
2022/04/28 07:38:50;;;;;;;0.85;0.38;;;11.20;99.90;;;;;;5030181;28;20047;-72
2022/04/28 07:41:16;;;;;;;0.20;0.20;;;11.10;99.90;;;;;;5039250;28;20044;-73
2022/04/28 07:43:41;;;;;;;2.90;1.48;;;10.90;99.90;;;;;;5025782;28;20056;-73
2022/04/28 07:46:07;;;;;;;0.20;0.20;;;10.90;99.90;;;;;;5036122;28;20052;-73
2022/04/28 07:48:33;;;;;;;0.45;0.45;;;10.80;99.90;;;;;;5012576;28;20051;-73
2022/04/28 07:50:58;;;;;;;0.65;0.65;;;10.90;99.90;;;;;;5010048;28;20053;-73
2022/04/28 07:53:24;;;;;;;0.30;0.30;;;11.00;99.90;;;;;;5024736;28;20049;-72
2022/04/28 07:58:34;;;;;;;0.30;0.30;;;11.30;99.90;;;;;;5043394;28;20131;-73
2022/04/28 08:01:00;;;;;;;1.48;0.82;;;11.40;99.90;;;;;;5031989;28;20179;-73
2022/04/28 08:03:26;;;;;;;0.20;0.20;;;11.40;99.90;;;;;;5032443;28;20055;-73
2022/04/28 08:05:55;;;;;;;0.20;0.20;;;11.50;99.90;;;;;;5031603;28;20045;-73
2022/04/28 08:08:21;;;;;;;2.17;0.38;;;11.50;99.90;;;;;;5036711;28;20395;-72
2022/04/28 08:10:48;;;;;;;0.20;0.20;;;11.50;99.90;;;;;;5038001;28;20041;-73
2022/04/28 08:13:13;;;;;;;2.30;1.95;;;11.50;99.90;;;;;;5031750;28;20041;-73
2022/04/28 08:15:39;;;;;;;1.98;1.88;;;11.60;99.90;;;;;;5031888;28;20052;-73
2022/04/28 08:18:05;;;;;;;3.45;0.95;;;11.70;99.90;;;;;;5030991;28;20040;-73
2022/04/28 08:20:31;;;;;;;0.20;0.20;;;11.80;99.90;;;;;;5006964;28;20400;-73
2022/04/28 08:22:56;;;;;;;2.58;0.38;;;11.90;99.90;;;;;;5036073;28;20495;-73
2022/04/28 08:25:22;;;;;;;0.25;0.25;;;11.90;99.90;;;;;;5029719;28;20147;-73
2022/04/28 08:27:48;;;;;;;1.17;0.50;;;11.90;99.90;;;;;;5031195;28;20339;-73
2022/04/28 08:30:14;;;;;;;9.52;0.95;;;11.90;99.90;;;;;;4997671;28;20493;-73
2022/04/28 08:32:40;;;;;;;3.30;1.10;;;12.00;99.90;;;;;;5009324;28;20496;-73
2022/04/28 08:35:06;;;;;;;0.73;0.40;;;12.00;99.90;;;;;;5032210;28;20037;-73
2022/04/28 08:37:32;;;;;;;0.98;0.73;;;12.10;99.90;;;;;;5015492;28;20041;-74
2022/04/28 08:39:57;;;;;;;0.57;0.50;;;12.10;99.90;;;;;;5019338;28;20040;-73
2022/04/28 08:42:25;;;;;;;1.75;1.65;;;12.10;99.90;;;;;;5032585;28;20051;-73
2022/04/28 08:44:50;;;;;;;1.38;0.77;;;12.10;99.90;;;;;;5005413;28;20107;-73
2022/04/28 08:47:16;;;;;;;0.50;0.50;;;12.50;99.90;;;;;;5011857;28;20045;-73
2022/04/28 08:49:45;;;;;;;0.10;0.10;;;13.40;99.90;;;;;;5018601;28;20053;-73
2022/04/28 08:52:12;;;;;;;2.08;0.65;;;14.20;99.90;;;;;;5031545;28;20064;-73
2022/04/28 08:54:39;;;;;;;1.00;0.70;;;14.10;99.00;;;;;;5031687;28;20044;-73
2022/04/28 08:57:05;;;;;;;5.28;1.75;;;13.80;99.50;;;;;;5031232;28;20041;-73
2022/04/28 08:59:31;;;;;;;1.05;1.05;;;13.60;99.90;;;;;;5031210;28;20045;-73
2022/04/28 09:01:57;;;;;;;0.10;0.10;;;13.40;99.10;;;;;;5023546;28;20044;-73
2022/04/28 09:04:23;;;;;;;0.30;0.30;;;13.30;99.60;;;;;;5011238;28;20106;-73
2022/04/28 09:06:55;;;;;;;3.08;2.10;;;13.20;99.60;;;;;;5011514;28;20044;-73
2022/04/28 09:09:21;;;;;;;0.73;0.73;;;13.20;99.90;;;;;;5011446;28;20432;-73
2022/04/28 09:11:47;;;;;;;19.65;2.47;;;13.30;99.90;;;;;;5000737;28;20049;-72
2022/04/28 09:14:15;;;;;;;11.25;0.88;;;14.10;99.90;;;;;;5011191;28;20292;-73
2022/04/28 09:16:49;;;;;;;12.57;1.80;;;15.00;99.10;;;;;;4991186;28;20034;-73
2022/04/28 09:19:16;;;;;;;0.25;0.25;;;15.50;94.40;;;;;;5011666;28;20587;-73
2022/04/28 09:21:42;;;;;;;3.88;1.17;;;15.90;93.70;;;;;;5013931;28;20045;-73
2022/04/28 09:24:09;;;;;;;1.85;1.20;;;16.10;90.10;;;;;;5029126;28;20045;-73
2022/04/28 09:26:36;;;;;;;0.35;0.35;;;16.40;90.60;;;;;;5020962;28;20124;-73
2022/04/28 09:29:03;;;;;;;0.40;0.40;;;16.70;90.00;;;;;;5036845;28;20048;-73
2022/04/28 09:31:39;;;;;;;6.15;1.73;;;16.80;86.10;;;;;;5044723;28;20036;-73
2022/04/28 09:34:10;;;;;;;2.00;1.08;;;17.00;76.20;;;;;;5022484;28;20033;-72
2022/04/28 09:36:37;;;;;;;4.28;1.63;;;16.50;75.40;;;;;;5011262;28;20107;-72
2022/04/28 09:39:07;;;;;;;3.05;1.00;;;16.50;78.50;;;;;;5011043;28;20095;-73
2022/04/28 09:44:21;;;;;;;0.50;0.50;;;16.00;78.30;;;;;;5030811;28;20450;-73
2022/04/28 09:46:48;;;;;;;5.05;1.77;;;16.00;81.10;;;;;;5014247;28;20354;-73
2022/04/28 09:49:18;;;;;;;0.85;0.65;;;16.10;80.80;;;;;;5009334;28;20386;-73
2022/04/28 09:51:45;;;;;;;1.20;1.10;;;16.10;84.90;;;;;;5027473;28;20049;-73
2022/04/28 09:54:12;;;;;;;2.55;1.10;;;15.80;83.10;;;;;;5022084;28;20041;-73
2022/04/28 09:56:39;;;;;;;0.40;0.40;;;15.20;83.40;;;;;;5007792;28;20476;-73
2022/04/28 09:59:09;;;;;;;3.47;0.90;;;14.60;86.00;;;;;;5030407;28;20044;-72
2022/04/28 10:01:37;;;;;;;1.73;1.27;;;14.20;85.60;;;;;;5016723;28;20056;-73
2022/04/28 10:04:03;;;;;;;1.08;0.35;;;13.80;86.00;;;;;;5027687;28;20045;-73
2022/04/28 10:06:34;;;;;;;2.42;0.80;;;13.50;87.30;;;;;;5013913;28;20067;-72
2022/04/28 10:09:04;;;;;;;2.80;1.17;;;13.50;91.00;;;;;;5011536;28;20034;-73
2022/04/28 10:11:30;;;;;;;0.10;0.10;;;13.60;91.30;;;;;;5013241;28;20131;-73
2022/04/28 10:13:57;;;;;;;1.15;0.40;;;13.80;90.90;;;;;;5022421;28;20048;-73
2022/04/28 10:16:24;;;;;;;0.20;0.20;;;13.90;91.60;;;;;;5047057;28;20451;-73
2022/04/28 10:19:01;;;;;;;3.00;1.33;;;14.00;91.50;;;;;;5012487;28;20037;-73
2022/04/28 10:21:43;;;;;;;1.38;1.05;;;13.90;91.70;;;;;;5045970;28;20045;-73
2022/04/28 10:32:58;;;;;;;8.63;1.45;;;13.40;93.40;;;;;;5017512;28;20057;-73
2022/04/28 10:35:43;;;;;;;6.18;1.90;;;13.30;93.30;;;;;;5016059;28;20041;-73
2022/04/28 10:38:30;;;;;;;7.32;1.52;;;13.20;91.90;;;;;;5009241;28;20052;-72
2022/04/28 10:41:01;;;;;;;7.18;1.42;;;13.10;92.30;;;;;;5024280;28;20439;-73
2022/04/28 10:43:33;;;;;;;5.68;1.73;;;13.00;92.70;;;;;;5013265;28;20037;-73
2022/04/28 10:46:01;;;;;;;36.20;2.28;;;13.00;93.40;;;;;;5038620;28;20033;-73
2022/04/28 10:48:30;;;;;;;4.18;2.13;;;13.20;93.70;;;;;;5009284;28;20458;-73
2022/04/28 10:51:18;;;;;;;1.15;1.13;;;13.30;94.40;;;;;;5028753;28;20100;-73
2022/04/28 10:54:05;;;;;;;1.00;0.90;;;13.40;93.70;;;;;;5028973;28;20471;-73
2022/04/28 10:56:40;;;;;;;2.08;1.98;;;13.40;94.20;;;;;;5003366;28;20120;-73
2022/04/28 10:59:37;;;;;;;0.20;0.20;;;13.40;94.90;;;;;;5022254;28;20049;-73
2022/04/28 11:02:15;;;;;;;2.47;1.25;;;13.40;95.00;;;;;;5028359;28;20053;-73
2022/04/28 11:05:04;;;;;;;0.10;0.10;;;13.40;94.70;;;;;;5010576;28;20048;-73
2022/04/28 11:07:31;;;;;;;2.50;1.25;;;13.50;95.40;;;;;;4989224;28;20136;-72
2022/04/28 11:10:00;;;;;;;0.80;0.80;;;13.50;94.40;;;;;;5008817;28;20049;-73
2022/04/28 11:12:33;;;;;;;0.70;0.70;;;13.30;93.70;;;;;;4994720;28;20151;-73
2022/04/28 11:15:14;;;;;;;0.13;0.13;;;13.20;94.60;;;;;;5029332;28;20507;-72
2022/04/28 11:17:43;;;;;;;1.67;1.38;;;13.20;95.20;;;;;;5028291;28;20040;-73
2022/04/28 11:20:12;;;;;;;6.00;1.73;;;13.30;94.90;;;;;;5029763;28;20496;-73
2022/04/28 11:22:46;;;;;;;3.20;2.03;;;13.30;94.50;;;;;;5014018;28;20044;-73
2022/04/28 11:25:13;;;;;;;2.28;0.55;;;13.30;94.30;;;;;;5029148;28;20041;-73
2022/04/28 11:27:39;;;;;;;0.30;0.30;;;13.30;95.70;;;;;;5014728;28;20036;-73
2022/04/28 11:30:07;;;;;;;0.60;0.60;;;13.40;95.90;;;;;;5029942;28;20052;-73
2022/04/28 11:32:32;;;;;;;1.48;1.02;;;13.40;95.90;;;;;;5042760;28;20048;-73
2022/04/28 11:34:58;;;;;;;0.10;0.10;;;13.40;95.80;;;;;;5011007;28;20037;-73
2022/04/28 11:37:26;;;;;;;4.53;0.77;;;13.30;95.50;;;;;;5010565;28;20493;-73
2022/04/28 11:39:55;;;;;;;0.47;0.47;;;13.20;95.50;;;;;;5026424;28;20045;-73
2022/04/28 11:42:22;;;;;;;0.77;0.65;;;13.10;95.80;;;;;;5036761;28;20045;-73
2022/04/28 11:44:53;;;;;;;1.52;1.42;;;13.10;96.60;;;;;;5013777;28;20505;-73
2022/04/28 11:47:23;;;;;;;0.47;0.47;;;13.20;96.10;;;;;;5032266;28;20194;-73
2022/04/28 11:50:01;;;;;;;10.13;1.40;;;13.20;96.80;;;;;;5016067;28;20045;-73
2022/04/28 11:52:29;;;;;;;7.53;1.10;;;13.20;96.00;;;;;;5012980;28;20049;-73
2022/04/28 11:55:04;;;;;;;15.80;1.08;;;13.20;96.00;;;;;;4996659;28;20049;-72
2022/04/28 11:57:30;;;;;;;0.52;0.52;;;13.10;96.10;;;;;;5029831;28;20048;-73
2022/04/28 11:59:57;;;;;;;0.50;0.50;;;13.00;95.60;;;;;;5032281;28;20124;-73
2022/04/28 12:02:23;;;;;;;6.93;2.15;;;12.90;95.70;;;;;;5013519;28;20049;-73
2022/04/28 12:04:48;;;;;;;0.35;0.35;;;13.00;96.40;;;;;;5013090;28;20175;-73
2022/04/28 12:07:22;;;;;;;0.30;0.30;;;12.90;96.20;;;;;;5031867;28;20127;-73
2022/04/28 12:15:20;;;;;;;9.13;1.92;;;13.10;97.10;;;;;;5032273;28;20049;-73
2022/04/28 12:21:06;;;;;;;1.85;1.17;;;13.20;96.20;;;;;;5010552;28;20062;-72
2022/04/28 12:23:32;;;;;;;1.52;1.02;;;13.10;95.70;;;;;;5014795;28;20041;-73
2022/04/28 12:26:05;;;;;;;0.65;0.65;;;13.10;95.70;;;;;;5015803;28;20152;-73
2022/04/28 12:28:41;;;;;;;1.77;1.13;;;13.10;95.70;;;;;;5048232;28;20057;-72
2022/04/28 12:31:09;;;;;;;16.27;5.15;;;13.20;95.70;;;;;;5032153;28;20373;-72
2022/04/28 12:33:37;;;;;;;0.30;0.30;;;13.10;94.70;;;;;;5007184;28;20101;-73
2022/04/28 12:36:09;;;;;;;0.60;0.60;;;13.00;96.20;;;;;;5005427;28;20049;-73
2022/04/28 12:38:35;;;;;;;;;;;13.10;96.30;;;;;;5035399;28;20053;-72
2022/04/28 12:41:16;;;;;;;1.65;1.50;;;13.20;96.30;;;;;;5013422;28;19967;-73
2022/04/28 12:43:48;;;;;;;1.02;1.02;;;13.10;95.00;;;;;;5032021;28;20073;-73
2022/04/28 12:46:32;;;;;;;2.70;1.17;;;13.00;95.80;;;;;;5004178;28;20111;-72
2022/04/28 12:49:01;;;;;;;4.88;1.27;;;13.00;96.00;;;;;;4995533;28;20681;-73
2022/04/28 12:51:27;;;;;;;0.73;0.50;;;12.90;96.00;;;;;;5026122;28;20717;-72
2022/04/28 12:54:15;;;;;;;2.08;0.82;;;12.90;95.60;;;;;;5010684;28;20076;-73
2022/04/28 12:56:43;;;;;;;0.80;0.52;;;12.90;95.90;;;;;;5012233;28;20493;-73
2022/04/28 12:59:11;;;;;;;0.30;0.30;;;13.00;96.20;;;;;;4995596;28;20045;-73
2022/04/28 13:01:38;;;;;;;1.30;0.98;;;13.00;95.40;;;;;;5012968;28;20550;-73
2022/04/28 13:04:18;;;;;;;19.13;3.30;;;13.00;95.90;;;;;;5029697;28;20551;-73
2022/04/28 13:06:45;;;;;;;6.80;0.60;;;12.90;96.10;;;;;;5011902;28;20382;-73
2022/04/28 13:09:11;;;;;;;0.82;0.80;;;12.80;96.20;;;;;;5030766;28;20489;-73
2022/04/28 13:11:41;;;;;;;6.13;2.13;;;12.70;96.00;;;;;;5001916;28;20038;-73
2022/04/28 13:14:09;;;;;;;3.42;0.93;;;12.70;97.60;;;;;;5010572;28;20461;-73
2022/04/28 13:16:35;;;;;;;5.88;1.75;;;12.70;97.30;;;;;;5017079;28;20056;-72
2022/04/28 13:19:01;;;;;;;0.65;0.65;;;12.80;96.90;;;;;;5027395;28;20045;-73
2022/04/28 13:21:28;;;;;;;1.65;1.33;;;12.80;96.50;;;;;;5030930;28;20045;-73
2022/04/28 13:23:54;;;;;;;11.38;0.73;;;12.80;96.60;;;;;;5030460;28;20064;-73
2022/04/28 13:26:21;;;;;;;1.20;1.10;;;12.80;97.80;;;;;;5030778;28;20044;-73
2022/04/28 13:28:49;;;;;;;1.77;1.30;;;12.90;97.50;;;;;;5010851;28;20045;-72
2022/04/28 13:31:15;;;;;;;0.30;0.30;;;12.90;95.70;;;;;;5013377;28;20041;-73
2022/04/28 13:33:42;;;;;;;0.17;0.17;;;12.80;96.60;;;;;;5025392;28;20045;-73